• Join FlightAware (Why Join?)
  • Login
  • US Flag 
10:34AM EST


 

Airport Tracker/Info


-or-


 

Live Flight TrackerFlight Track Log ✈ RPA3885 ✈ 19-Aug-2014 ✈ KBTV - KIAD

Flight Track Log - Related Links

Times and Time Zones

All times are in EDT time to prevent confusion due to time zone crossing. See the RPA3885 flight status page for this flight to view local times or setup timezone preferences in your user account.

Time Position Orientation Groundspeed Altitude Reporting Facility
EDT Latitude Longitude Course Direction KTS MPH feet Rate Location/Type
10:58AM 44.3647 -73.0306 211° Southwest 239 275 5,500  Level Boston Center
10:59AM 44.3161 -72.9733 140° Southeast 235 270 8,000 2,160 Climbing Boston Center
11:00AM 44.2436 -72.9656 176° South 244 281 10,000 1,200 Climbing Boston Center
11:01AM 44.1808 -73.0281 216° Southwest 283 326 10,600 660 Climbing Boston Center
11:02AM 44.0100 -73.5163 209° Southwest  Level FlightAware Approximate
11:02AM 44.1036 -73.1072 216° Southwest 319 367 11,400  Level Boston Center
11:03AM 43.9338 -73.5772 211° Southwest  Level FlightAware Approximate
11:03AM 44.0311 -73.1800 216° Southwest 323 372 12,400  Level Boston Center
11:04AM 43.9506 -73.2594 215° Southwest 327 376 13,500 1,020 Climbing Boston Center
11:05AM 43.8781 -73.3319 216° Southwest 327 376 14,500 960 Climbing Boston Center
11:06AM 43.8050 -73.4039 215° Southwest 326 375 15,500 960 Climbing Boston Center
11:07AM 43.7272 -73.4819 216° Southwest 325 374 16,500 900 Climbing Boston Center
11:08AM 43.6600 -73.5472 215° Southwest 323 372 17,400 900 Climbing Boston Center
11:09AM 43.5883 -73.6164 215° Southwest 319 367 18,400 960 Climbing Boston Center
11:10AM 43.5172 -73.6850 215° Southwest 317 365 19,400 960 Climbing Boston Center
11:11AM 43.4475 -73.7550 216° Southwest 315 362 20,400 1,020 Climbing Boston Center
11:12AM 43.3631 -73.8361 215° Southwest 312 359 21,600 720 Climbing Boston Center
11:13AM 43.2928 -73.9033 215° Southwest 311 358 22,000 180 Climbing Boston Center
11:14AM 43.2178 -73.9758 215° Southwest 322 371 22,000  Level Boston Center
11:15AM 43.1394 -74.0522 215° Southwest 341 392 22,000  Level Boston Center
11:16AM 43.0628 -74.1239 214° Southwest 348 400 22,000  Level Boston Center
11:17AM 42.9819 -74.2017 215° Southwest 351 404 22,000  Level Boston Center
11:18AM 42.8844 -74.2961 215° Southwest 355 409 22,000  Level Boston Center
11:19AM 42.8033 -74.3722 215° Southwest 355 409 22,000  Level Boston Center
11:20AM 42.7211 -74.4497 215° Southwest 355 409 22,000  Level Boston Center
11:21AM 42.6392 -74.5278 215° Southwest 356 410 22,000  Level Boston Center
11:22AM 42.5572 -74.6058 215° Southwest 356 410 22,000  Level Boston Center
11:23AM 42.4969 -74.7106 232° Southwest 355 409 22,000  Level Boston Center
11:24AM 42.4350 -74.8286 235° Southwest 352 405 22,000  Level Boston Center
11:25AM 42.3761 -74.9339 233° Southwest 352 405 22,000  Level Boston Center
11:26AM 42.3192 -75.0394 234° Southwest 350 403 22,000  Level Boston Center
11:27AM 42.2614 -75.1450 234° Southwest 349 402 22,000  Level Boston Center
11:28AM 42.2036 -75.2506 234° Southwest 349 402 22,000  Level Boston Center
11:29AM 42.1347 -75.3758 233° Southwest 349 402 22,000  Level Boston Center
11:30AM 42.0756 -75.4800 233° Southwest 350 403 22,000  Level Boston Center
11:32AM 42.0186 -75.5853 234° Southwest 349 402 22,000 -300 Level Boston Center
11:33AM 41.9439 -75.6736 221° Southwest 354 407 21,500 -600 Descending Boston Center
11:34AM 41.8625 -75.7561 217° Southwest 366 421 20,800 -720 Descending Boston Center
11:35AM 41.7817 -75.8444 219° Southwest 367 422 20,100 -720 Descending New York Center
11:36AM 41.7008 -75.9300 218° Southwest 372 428 19,400 -780 Descending New York Center
11:37AM 41.6136 -76.0231 219° Southwest 372 428 18,600 -780 Descending New York Center
11:38AM 41.5369 -76.1058 219° Southwest 372 428 17,900 -720 Descending New York Center
11:39AM 41.4583 -76.1881 218° Southwest 366 421 17,200 -660 Descending New York Center
11:40AM 41.3883 -76.2600 218° Southwest 366 421 16,600 -600 Descending New York Center
11:41AM 41.3072 -76.3444 218° Southwest 366 421 16,000 -360 Descending New York Center
11:42AM 41.2239 -76.4314 218° Southwest 361 415 16,000  Level New York Center
11:43AM 41.1472 -76.5106 218° Southwest 361 415 16,000  Level New York Center
11:44AM 41.0769 -76.5844 218° Southwest 361 415 16,000  Level New York Center
11:45AM 40.9933 -76.6733 219° Southwest 361 415 16,000  Level New York Center
11:46AM 40.9164 -76.7547 219° Southwest 361 415 16,000  Level New York Center
11:47AM 40.8394 -76.8358 219° Southwest 361 415 16,000  Level New York Center
11:48AM 40.7550 -76.8967 209° Southwest 356 410 16,000  Level New York Center
11:49AM 40.6575 -76.9264 193° South 351 404 16,000  Level New York Center
11:50AM 40.5600 -76.9558 193° South 362 417 16,000  Level New York Center
11:51AM 40.4647 -76.9856 193° South 362 417 16,000  Level New York Center
11:53AM 40.2803 -77.0550 196° South 356 410 16,000  Level Washington Center
11:54AM 40.1861 -77.0967 199° South 356 410 16,000  Level Washington Center
11:55AM 40.0811 -77.1425 198° South 356 410 16,000 -720 Level Washington Center
11:56AM 39.9872 -77.1825 198° South 356 410 14,600 -1,860 Descending Washington Center
11:57AM 39.9000 -77.2167 197° South 349 402 12,400 -2,220 Descending Potomac TRACON
11:58AM 39.8000 -77.2667 201° Southwest 328 377 10,400 -1,200 Descending Potomac TRACON
11:59AM 39.7167 -77.3000 197° South 323 372 10,000 -240 Descending Potomac TRACON
12:00PM 39.6333 -77.3333 197° South 336 387 10,000  Level Potomac TRACON
12:01PM 39.5500 -77.3333 180° South 331 381 10,000  Level Potomac TRACON
12:02PM 39.4500 -77.3333 180° South 331 381 10,000 -60 Level Potomac TRACON
12:03PM 39.3667 -77.3500 189° South 303 349 9,900 -1,080 Descending Potomac TRACON
12:04PM 39.2833 -77.3500 180° South 283 326 8,000 -2,040 Descending Potomac TRACON
12:04PM 39.2167 -77.3500 180° South 272 313 6,000 -1,980 Descending Potomac TRACON
12:05PM 39.1500 -77.3500 180° South 264 304 4,300 -1,260 Descending Potomac TRACON
12:06PM 39.1047 -77.3497 180° South 267 307 4,000 -240 Descending Washington Center
12:07PM 39.0319 -77.3531 182° South 263 303 4,000  Level Washington Center
12:08PM 38.9592 -77.3539 181° South 263 303 4,000 -360 Level Washington Center
12:09PM 38.8853 -77.3572 182° South 263 303 3,300 -540 Descending Washington Center
12:10PM 38.8142 -77.3583 181° South 260 299 3,000 -180 Descending Washington Center
12:11PM 38.7542 -77.3942 205° Southwest 261 300 3,000  Level Washington Center
12:12PM 38.8000 -77.4667 309° West 242 278 3,000 -660 Level Potomac TRACON
12:13PM 38.8667 -77.4667 360° North 238 274 1,700 -1,140 Descending Potomac TRACON
12:14PM 38.9167 -77.4667 360° North 158 182 900 -900 Descending Potomac TRACON
12:17PM 38.9333 -77.4500 North  Level FlightAware Approximate